createdAt,value
2024-04-07T00:00:02.418Z,9.418150
2024-04-07T00:01:01.408Z,9.418179
2024-04-07T00:02:01.391Z,9.418340
2024-04-07T00:03:01.388Z,9.418409
2024-04-07T00:04:01.390Z,9.418328
2024-04-07T00:05:01.562Z,9.418309
2024-04-07T00:06:01.357Z,9.418370
2024-04-07T00:07:02.376Z,9.418384
2024-04-07T00:08:01.351Z,9.418478
2024-04-07T00:09:01.354Z,9.418352
2024-04-07T00:10:01.335Z,9.418354
2024-04-07T00:11:01.327Z,9.418407
2024-04-07T00:12:01.321Z,9.418394
2024-04-07T00:13:01.314Z,9.418418
2024-04-07T00:14:01.334Z,9.418406
2024-04-07T00:15:01.289Z,9.418512
2024-04-07T00:16:01.296Z,9.418495
2024-04-07T00:17:01.321Z,9.418489
2024-04-07T00:18:01.281Z,9.418469
2024-04-07T00:19:01.276Z,9.418427
2024-04-07T00:20:01.329Z,9.418322
2024-04-07T00:21:01.279Z,9.418374
2024-04-07T00:22:01.259Z,9.418371
2024-04-07T00:23:01.251Z,9.418413
2024-04-07T00:24:01.231Z,9.418252
2024-04-07T00:25:01.252Z,9.418132
2024-04-07T00:26:01.236Z,9.418152
2024-04-07T00:27:01.216Z,9.418227
2024-04-07T00:28:01.244Z,9.418187
2024-04-07T00:29:01.213Z,9.418245
2024-04-07T00:30:01.209Z,9.418317
2024-04-07T00:31:01.194Z,9.418306
2024-04-07T00:32:01.177Z,9.418281
2024-04-07T00:33:01.182Z,9.418187
2024-04-07T00:34:01.159Z,9.418204
2024-04-07T00:35:01.177Z,9.418324
2024-04-07T00:36:01.150Z,9.418344
2024-04-07T00:37:01.147Z,9.418363
2024-04-07T00:38:01.129Z,9.418334
2024-04-07T00:39:01.116Z,9.418265
2024-04-07T00:40:01.128Z,9.418211
2024-04-07T00:41:01.120Z,9.418116
2024-04-07T00:42:01.104Z,9.418236
2024-04-07T00:43:01.107Z,9.418227
2024-04-07T00:44:01.098Z,9.418265
2024-04-07T00:45:01.113Z,9.418230
2024-04-07T00:46:01.102Z,9.418305
2024-04-07T00:47:01.087Z,9.418326
2024-04-07T00:48:01.052Z,9.418293
2024-04-07T00:49:01.056Z,9.418267
2024-04-07T00:50:02.044Z,9.418316
2024-04-07T00:51:01.037Z,9.418346
2024-04-07T00:52:01.039Z,9.418280
2024-04-07T00:53:01.028Z,9.418321
2024-04-07T00:54:01.004Z,9.418223
2024-04-07T00:55:01.012Z,9.418273
2024-04-07T00:56:00.999Z,9.418274
2024-04-07T00:57:00.983Z,9.418348
2024-04-07T00:58:00.991Z,9.418336
2024-04-07T00:59:00.984Z,9.418342
2024-04-07T01:00:00.963Z,9.418325
2024-04-07T01:01:00.958Z,9.418320
2024-04-07T01:02:00.968Z,9.418268
2024-04-07T01:03:00.971Z,9.418354
2024-04-07T01:04:00.950Z,9.418352
2024-04-07T01:05:00.935Z,9.418323
2024-04-07T01:06:00.931Z,9.418262
2024-04-07T01:07:00.925Z,9.418313
2024-04-07T01:08:00.916Z,9.418326
2024-04-07T01:09:00.898Z,9.418268
2024-04-07T01:10:00.898Z,9.418270
2024-04-07T01:11:00.881Z,9.418252
2024-04-07T01:12:00.901Z,9.418282
2024-04-07T01:13:00.875Z,9.418275
2024-04-07T01:14:01.032Z,9.418292
2024-04-07T01:15:00.864Z,9.418300
2024-04-07T01:16:00.866Z,9.418318
2024-04-07T01:17:00.844Z,9.418308
2024-04-07T01:18:00.825Z,9.418335
2024-04-07T01:19:00.955Z,9.418306
2024-04-07T01:20:00.819Z,9.418308
2024-04-07T01:21:00.807Z,9.418327
2024-04-07T01:22:00.816Z,9.418332
2024-04-07T01:23:00.796Z,9.418354
2024-04-07T01:24:00.799Z,9.418354
2024-04-07T01:25:00.817Z,9.418294
2024-04-07T01:26:00.784Z,9.418329
2024-04-07T01:27:00.775Z,9.418323
2024-04-07T01:28:00.760Z,9.418299
2024-04-07T01:29:00.772Z,9.418314
2024-04-07T01:30:00.766Z,9.418405
2024-04-07T01:31:00.742Z,9.418375
2024-04-07T01:32:00.732Z,9.418374
2024-04-07T01:33:00.735Z,9.418346
2024-04-07T01:34:00.722Z,9.418424
2024-04-07T01:35:00.742Z,9.418437
2024-04-07T01:36:00.712Z,9.418578
2024-04-07T01:37:00.691Z,9.418681
2024-04-07T01:38:00.699Z,9.418816
2024-04-07T01:39:00.678Z,9.418596
2024-04-07T01:40:00.694Z,9.418652
2024-04-07T01:41:00.685Z,9.418538
2024-04-07T01:42:00.669Z,9.418629
2024-04-07T01:43:00.654Z,9.418607
2024-04-07T01:44:00.662Z,9.418500
2024-04-07T01:45:00.695Z,9.418611
2024-04-07T01:46:00.666Z,9.418402
2024-04-07T01:47:00.621Z,9.418298
2024-04-07T01:48:00.626Z,9.418764
2024-04-07T01:49:00.633Z,9.418589
2024-04-07T01:50:00.626Z,9.418519
2024-04-07T01:51:00.603Z,9.418466
2024-04-07T01:52:00.612Z,9.418887
2024-04-07T01:53:00.597Z,9.418666
2024-04-07T01:54:00.650Z,9.418418
2024-04-07T01:55:00.580Z,9.418002
2024-04-07T01:56:00.564Z,9.418250
2024-04-07T01:57:00.591Z,9.418354
2024-04-07T01:58:00.618Z,9.418284
2024-04-07T01:59:00.577Z,9.418222
2024-04-07T02:00:00.565Z,9.418315
2024-04-07T02:01:00.545Z,9.418448
2024-04-07T02:02:00.541Z,9.418340
2024-04-07T02:03:00.598Z,9.418228
2024-04-07T02:04:00.565Z,9.418247
2024-04-07T02:05:00.559Z,9.418334
2024-04-07T02:06:00.554Z,9.418299
2024-04-07T02:07:00.492Z,9.418275
2024-04-07T02:08:00.483Z,9.418282
2024-04-07T02:09:00.479Z,9.418236
2024-04-07T02:10:00.464Z,9.418323
2024-04-07T02:11:00.483Z,9.418383
2024-04-07T02:12:00.468Z,9.418294
2024-04-07T02:13:00.450Z,9.418397
2024-04-07T02:14:00.457Z,9.418338
2024-04-07T02:15:00.456Z,9.418424
2024-04-07T02:16:00.458Z,9.418328
2024-04-07T02:17:00.417Z,9.418344
2024-04-07T02:18:00.453Z,9.418311
2024-04-07T02:19:00.415Z,9.418327
2024-04-07T02:20:00.413Z,9.418356
2024-04-07T02:21:00.415Z,9.418328
2024-04-07T02:22:00.385Z,9.418303
2024-04-07T02:23:00.372Z,9.418221
2024-04-07T02:24:00.382Z,9.418292
2024-04-07T02:25:00.359Z,9.418284
2024-04-07T02:26:00.364Z,9.418299
2024-04-07T02:27:00.351Z,9.418249
2024-04-07T02:28:00.335Z,9.418303
2024-04-07T02:29:00.336Z,9.418283
2024-04-07T02:30:00.342Z,9.418290
2024-04-07T02:31:00.308Z,9.418306
2024-04-07T02:32:00.317Z,9.418268
2024-04-07T02:33:00.298Z,9.418280
2024-04-07T02:34:00.290Z,9.418308
2024-04-07T02:35:00.303Z,9.418293
2024-04-07T02:36:00.278Z,9.418313
2024-04-07T02:37:00.301Z,9.418303
2024-04-07T02:38:00.265Z,9.418275
2024-04-07T02:39:00.268Z,9.418314
2024-04-07T02:40:00.260Z,9.418311
2024-04-07T02:41:00.261Z,9.418304
2024-04-07T02:42:00.259Z,9.418304
2024-04-07T02:43:00.248Z,9.418292
2024-04-07T02:44:00.251Z,9.418384
2024-04-07T02:45:00.213Z,9.418443
2024-04-07T02:46:00.226Z,9.418393
2024-04-07T02:47:01.193Z,9.418286
2024-04-07T02:48:00.199Z,9.418284
2024-04-07T02:49:00.191Z,9.418264
2024-04-07T02:50:00.250Z,9.418277
2024-04-07T02:51:00.176Z,9.418247
2024-04-07T02:52:00.191Z,9.418210
2024-04-07T02:53:00.152Z,9.418291
2024-04-07T02:54:00.154Z,9.418341
2024-04-07T02:55:00.169Z,9.418299
2024-04-07T02:56:00.137Z,9.418327
2024-04-07T02:57:00.145Z,9.418467
2024-04-07T02:58:00.125Z,9.418375
2024-04-07T02:59:00.118Z,9.418329
2024-04-07T03:00:00.133Z,9.418303
2024-04-07T03:01:00.100Z,9.418278
2024-04-07T03:02:00.113Z,9.418296
2024-04-07T03:03:00.102Z,9.418277
2024-04-07T03:04:00.077Z,9.418267
2024-04-07T03:05:00.130Z,9.418274
2024-04-07T03:06:00.068Z,9.418253
2024-04-07T03:07:00.071Z,9.418256
2024-04-07T03:08:00.067Z,9.418288
2024-04-07T03:09:00.047Z,9.418315
2024-04-07T03:10:00.038Z,9.418283
2024-04-07T03:11:00.049Z,9.418308
2024-04-07T03:12:00.034Z,9.418216
2024-04-07T03:13:00.011Z,9.418194
2024-04-07T03:14:00.003Z,9.418221
2024-04-07T03:15:00.010Z,9.418205
2024-04-07T03:15:59.989Z,9.418142
2024-04-07T03:17:01.417Z,9.418110
2024-04-07T03:18:00.979Z,9.418206
2024-04-07T03:18:59.964Z,9.418303
2024-04-07T03:19:59.964Z,9.418298
2024-04-07T03:20:59.961Z,9.418349
2024-04-07T03:21:59.944Z,9.418185
2024-04-07T03:22:59.944Z,9.418103
2024-04-07T03:23:59.929Z,9.418154
2024-04-07T03:24:59.936Z,9.418146
2024-04-07T03:25:59.932Z,9.418266
2024-04-07T03:26:59.929Z,9.418347
2024-04-07T03:27:59.911Z,9.418319
2024-04-07T03:28:59.901Z,9.418286
2024-04-07T03:29:59.901Z,9.418210
2024-04-07T03:31:00.000Z,9.418210
2024-04-07T03:31:59.874Z,9.418225
2024-04-07T03:32:59.870Z,9.418293
2024-04-07T03:34:00.124Z,9.418245
2024-04-07T03:34:59.860Z,9.418325
2024-04-07T03:35:59.868Z,9.418275
2024-04-07T03:36:59.906Z,9.418250
2024-04-07T03:37:59.844Z,9.418189
2024-04-07T03:38:59.831Z,9.418248
2024-04-07T03:39:59.849Z,9.418264
2024-04-07T03:40:59.808Z,9.418317
2024-04-07T03:41:59.817Z,9.418303
2024-04-07T03:42:59.798Z,9.418295
2024-04-07T03:43:59.793Z,9.418380
2024-04-07T03:44:59.797Z,9.418223
2024-04-07T03:45:59.775Z,9.418292
2024-04-07T03:46:59.779Z,9.418336
2024-04-07T03:47:59.769Z,9.418274
2024-04-07T03:49:00.777Z,9.418276
2024-04-07T03:49:59.765Z,9.418280
2024-04-07T03:50:59.756Z,9.418347
2024-04-07T03:51:59.733Z,9.418383
2024-04-07T03:52:59.736Z,9.418291
2024-04-07T03:53:59.753Z,9.418315
2024-04-07T03:54:59.760Z,9.418252
2024-04-07T03:55:59.724Z,9.418320
2024-04-07T03:56:59.713Z,9.418250
2024-04-07T03:57:59.706Z,9.418288
2024-04-07T03:58:59.699Z,9.418309
2024-04-07T03:59:59.690Z,9.418242
2024-04-07T04:00:59.685Z,9.418303
2024-04-07T04:01:59.675Z,9.418465
2024-04-07T04:02:59.673Z,9.418428
2024-04-07T04:03:59.680Z,9.418405
2024-04-07T04:04:59.689Z,9.418312
2024-04-07T04:05:59.650Z,9.418373
2024-04-07T04:06:59.658Z,9.418270
2024-04-07T04:07:59.655Z,9.418251
2024-04-07T04:08:59.630Z,9.418276
2024-04-07T04:09:59.617Z,9.418339
2024-04-07T04:10:59.627Z,9.418307
2024-04-07T04:11:59.626Z,9.418375
2024-04-07T04:12:59.640Z,9.418311
2024-04-07T04:13:59.608Z,9.418240
2024-04-07T04:14:59.598Z,9.418234
2024-04-07T04:15:59.584Z,9.418303
2024-04-07T04:16:59.586Z,9.418286
2024-04-07T04:17:59.576Z,9.418274
2024-04-07T04:18:59.602Z,9.418317
2024-04-07T04:19:59.557Z,9.418388
2024-04-07T04:20:59.568Z,9.418361
2024-04-07T04:21:59.563Z,9.418345
2024-04-07T04:22:59.550Z,9.418232
2024-04-07T04:23:59.569Z,9.418257
2024-04-07T04:24:59.529Z,9.418245
2024-04-07T04:25:59.519Z,9.418240
2024-04-07T04:26:59.512Z,9.418279
2024-04-07T04:27:59.523Z,9.418344
2024-04-07T04:28:59.498Z,9.418352
2024-04-07T04:29:59.512Z,9.418287
2024-04-07T04:30:59.513Z,9.418303
2024-04-07T04:31:59.477Z,9.418300
2024-04-07T04:32:59.465Z,9.418243
2024-04-07T04:33:59.466Z,9.418266
2024-04-07T04:34:59.469Z,9.418301
2024-04-07T04:35:59.471Z,9.418322
2024-04-07T04:36:59.453Z,9.418368
2024-04-07T04:37:59.437Z,9.418344
2024-04-07T04:38:59.438Z,9.418339
2024-04-07T04:39:59.432Z,9.418343
2024-04-07T04:40:59.454Z,9.418326
2024-04-07T04:41:59.433Z,9.418295
2024-04-07T04:42:59.409Z,9.418289
2024-04-07T04:43:59.405Z,9.418272
2024-04-07T04:44:59.388Z,9.418280
2024-04-07T04:45:59.391Z,9.418310
2024-04-07T04:46:59.420Z,9.418372
2024-04-07T04:47:59.378Z,9.418315
2024-04-07T04:48:59.404Z,9.418277
2024-04-07T04:49:59.349Z,9.418356
2024-04-07T04:50:59.357Z,9.418298
2024-04-07T04:51:59.425Z,9.418266
2024-04-07T04:52:59.387Z,9.418273
2024-04-07T04:53:59.341Z,9.418279
2024-04-07T04:54:59.325Z,9.418253
2024-04-07T04:55:59.323Z,9.418265
2024-04-07T04:56:59.305Z,9.418301
2024-04-07T04:57:59.309Z,9.418269
2024-04-07T04:58:59.335Z,9.418279
2024-04-07T05:00:00.261Z,9.418307
2024-04-07T05:01:00.290Z,9.418279
2024-04-07T05:01:59.367Z,9.418269
2024-04-07T05:02:59.275Z,9.418251
2024-04-07T05:03:59.272Z,9.418264
2024-04-07T05:04:59.287Z,9.418279
2024-04-07T05:05:59.251Z,9.418255
2024-04-07T05:06:59.251Z,9.418221
2024-04-07T05:07:59.237Z,9.418256
2024-04-07T05:08:59.234Z,9.418270
2024-04-07T05:09:59.248Z,9.418338
2024-04-07T05:10:59.218Z,9.418207
2024-04-07T05:11:59.232Z,9.418181
2024-04-07T05:12:59.202Z,9.418276
2024-04-07T05:13:59.198Z,9.418370
2024-04-07T05:14:59.195Z,9.418257
2024-04-07T05:15:59.222Z,9.418142
2024-04-07T05:16:59.200Z,9.418158
2024-04-07T05:17:59.178Z,9.418151
2024-04-07T05:18:59.167Z,9.418224
2024-04-07T05:19:59.152Z,9.418260
2024-04-07T05:20:59.784Z,9.418356
2024-04-07T05:21:59.166Z,9.418345
2024-04-07T05:22:59.134Z,9.418250
2024-04-07T05:23:59.123Z,9.418193
2024-04-07T05:24:59.113Z,9.418147
2024-04-07T05:25:59.108Z,9.418248
2024-04-07T05:26:59.131Z,9.418384
2024-04-07T05:27:59.084Z,9.418331
2024-04-07T05:28:59.074Z,9.418381
2024-04-07T05:29:59.072Z,9.418416
2024-04-07T05:30:59.071Z,9.418497
2024-04-07T05:31:59.089Z,9.418497
2024-04-07T05:32:59.047Z,9.418415
2024-04-07T05:33:59.261Z,9.418262
2024-04-07T05:34:59.036Z,9.418329
2024-04-07T05:35:59.027Z,9.418258
2024-04-07T05:36:59.011Z,9.418196
2024-04-07T05:37:59.014Z,9.418329
2024-04-07T05:38:59.013Z,9.418344
2024-04-07T05:40:01.547Z,9.418349
2024-04-07T05:40:58.996Z,9.418344
2024-04-07T05:41:58.979Z,9.418263
2024-04-07T05:42:58.988Z,9.418284
2024-04-07T05:43:59.000Z,9.418237
2024-04-07T05:44:58.979Z,9.418277
2024-04-07T05:45:58.956Z,9.418292
2024-04-07T05:46:58.982Z,9.418266
2024-04-07T05:47:58.955Z,9.418273
2024-04-07T05:48:59.761Z,9.418264
2024-04-07T05:49:58.952Z,9.418224
2024-04-07T05:50:58.915Z,9.418262
2024-04-07T05:51:58.908Z,9.418033
2024-04-07T05:52:58.912Z,9.418056
2024-04-07T05:53:58.907Z,9.418251
2024-04-07T05:54:59.224Z,9.418302
2024-04-07T05:55:58.933Z,9.418281
2024-04-07T05:56:58.952Z,9.418278
2024-04-07T05:57:59.103Z,9.418126
2024-04-07T05:58:58.891Z,9.418226
2024-04-07T05:59:58.864Z,9.418170
2024-04-07T06:00:58.843Z,9.418239
2024-04-07T06:01:58.890Z,9.418257
2024-04-07T06:02:58.843Z,9.418306
2024-04-07T06:03:58.818Z,9.418220
2024-04-07T06:04:59.024Z,9.418198
2024-04-07T06:05:58.808Z,9.418232
2024-04-07T06:06:58.835Z,9.418344
2024-04-07T06:07:58.816Z,9.418203
2024-04-07T06:08:58.780Z,9.418242
2024-04-07T06:09:58.800Z,9.418320
2024-04-07T06:10:58.837Z,9.418196
2024-04-07T06:11:58.897Z,9.418180
2024-04-07T06:12:58.768Z,9.418211
2024-04-07T06:13:58.779Z,9.418242
2024-04-07T06:14:59.764Z,9.418258
2024-04-07T06:15:58.739Z,9.418275
2024-04-07T06:16:58.744Z,9.418267
2024-04-07T06:17:58.740Z,9.418263
2024-04-07T06:18:58.730Z,9.418212
2024-04-07T06:19:58.790Z,9.418174
2024-04-07T06:20:58.707Z,9.418124
2024-04-07T06:21:58.696Z,9.418205
2024-04-07T06:22:58.699Z,9.418180
2024-04-07T06:23:59.706Z,9.418237
2024-04-07T06:24:58.676Z,9.418249
2024-04-07T06:25:58.706Z,9.418294
2024-04-07T06:26:58.664Z,9.418309
2024-04-07T06:27:58.653Z,9.418296
2024-04-07T06:28:58.682Z,9.418287
2024-04-07T06:29:58.646Z,9.418295
2024-04-07T06:30:58.800Z,9.418242
2024-04-07T06:31:58.707Z,9.418312
2024-04-07T06:32:58.615Z,9.418279
2024-04-07T06:33:58.615Z,9.418279
2024-04-07T06:34:58.641Z,9.418325
2024-04-07T06:35:58.614Z,9.418329
2024-04-07T06:36:58.595Z,9.418380
2024-04-07T06:37:58.648Z,9.418331
2024-04-07T06:38:58.589Z,9.418325
2024-04-07T06:39:58.572Z,9.418315
2024-04-07T06:40:58.656Z,9.418272
2024-04-07T06:41:58.557Z,9.418267
2024-04-07T06:42:58.587Z,9.418244
2024-04-07T06:43:58.621Z,9.418421
2024-04-07T06:44:58.559Z,9.418348
2024-04-07T06:45:58.598Z,9.418294
2024-04-07T06:46:58.602Z,9.418296
2024-04-07T06:47:58.559Z,9.418340
2024-04-07T06:48:58.511Z,9.418262
2024-04-07T06:49:58.563Z,9.418239
2024-04-07T06:50:58.508Z,9.418256
2024-04-07T06:51:58.535Z,9.418261
2024-04-07T06:52:58.648Z,9.418242
2024-04-07T06:53:58.490Z,9.418267
2024-04-07T06:54:58.472Z,9.418334
2024-04-07T06:55:58.728Z,9.418266
2024-04-07T06:56:58.471Z,9.418275
2024-04-07T06:57:58.600Z,9.418329
2024-04-07T06:58:58.504Z,9.418302
2024-04-07T06:59:58.535Z,9.418254
2024-04-07T07:00:58.458Z,9.418247
2024-04-07T07:01:58.496Z,9.418305
2024-04-07T07:02:58.436Z,9.418342
2024-04-07T07:03:58.420Z,9.418333
2024-04-07T07:04:58.425Z,9.418207
2024-04-07T07:05:58.403Z,9.418221
2024-04-07T07:06:58.440Z,9.418267
2024-04-07T07:07:58.447Z,9.418306
2024-04-07T07:08:58.391Z,9.418259
2024-04-07T07:09:58.402Z,9.418215
2024-04-07T07:10:58.392Z,9.418234
2024-04-07T07:11:58.371Z,9.418215
2024-04-07T07:12:58.393Z,9.418275
2024-04-07T07:13:58.410Z,9.418242
2024-04-07T07:14:58.345Z,9.418273
2024-04-07T07:15:58.348Z,9.418227
2024-04-07T07:16:58.381Z,9.418246
2024-04-07T07:17:58.371Z,9.418235
2024-04-07T07:18:58.364Z,9.418230
2024-04-07T07:19:58.368Z,9.418282
2024-04-07T07:20:58.316Z,9.418267
2024-04-07T07:21:58.303Z,9.418306
2024-04-07T07:22:58.388Z,9.418320
2024-04-07T07:23:58.286Z,9.418350
2024-04-07T07:24:58.292Z,9.418210
2024-04-07T07:25:58.296Z,9.418312
2024-04-07T07:26:58.258Z,9.418253
2024-04-07T07:27:58.261Z,9.418245
2024-04-07T07:28:58.322Z,9.418270
2024-04-07T07:29:58.253Z,9.418266
2024-04-07T07:30:58.248Z,9.418245
2024-04-07T07:31:58.309Z,9.418237
2024-04-07T07:32:58.232Z,9.418260
2024-04-07T07:33:58.221Z,9.418316
2024-04-07T07:34:58.282Z,9.418321
2024-04-07T07:35:58.205Z,9.418236
2024-04-07T07:36:58.208Z,9.418320
2024-04-07T07:37:58.230Z,9.418258
2024-04-07T07:38:58.195Z,9.418266
2024-04-07T07:39:58.476Z,9.418249
2024-04-07T07:40:58.239Z,9.418250
2024-04-07T07:41:58.187Z,9.418294
2024-04-07T07:42:58.202Z,9.418315
2024-04-07T07:43:58.237Z,9.418260
2024-04-07T07:44:58.194Z,9.418332
2024-04-07T07:45:58.309Z,9.418428
2024-04-07T07:46:58.191Z,9.418369
2024-04-07T07:47:58.232Z,9.418411
2024-04-07T07:48:58.130Z,9.418373
2024-04-07T07:49:58.162Z,9.418429
2024-04-07T07:50:58.113Z,9.418427
2024-04-07T07:51:58.109Z,9.418417
2024-04-07T07:52:58.132Z,9.418511
2024-04-07T07:53:58.108Z,9.418593
2024-04-07T07:54:58.777Z,9.418312
2024-04-07T07:55:58.160Z,9.418312
2024-04-07T07:56:58.099Z,9.418268
2024-04-07T07:57:58.064Z,9.418309
2024-04-07T07:58:58.061Z,9.418277
2024-04-07T08:00:05.456Z,9.418276
2024-04-07T08:01:00.053Z,9.418305
2024-04-07T08:01:58.080Z,9.418303
2024-04-07T08:02:58.030Z,9.418374
2024-04-07T08:03:58.022Z,9.418365
2024-04-07T08:04:58.062Z,9.418300
2024-04-07T08:05:58.023Z,9.418246
2024-04-07T08:06:58.004Z,9.418272
2024-04-07T08:07:58.017Z,9.418283
2024-04-07T08:08:58.056Z,9.418301
2024-04-07T08:09:58.015Z,9.418363
2024-04-07T08:10:58.083Z,9.418245
2024-04-07T08:11:57.975Z,9.418275
2024-04-07T08:12:57.970Z,9.418225
2024-04-07T08:13:57.983Z,9.418252
2024-04-07T08:14:57.966Z,9.418318
2024-04-07T08:15:57.957Z,9.418311
2024-04-07T08:16:58.048Z,9.418355
2024-04-07T08:17:58.112Z,9.418362
2024-04-07T08:18:57.926Z,9.418393
2024-04-07T08:19:57.967Z,9.418345
2024-04-07T08:20:57.905Z,9.418397
2024-04-07T08:21:57.960Z,9.418431
2024-04-07T08:22:57.905Z,9.418465
2024-04-07T08:23:57.890Z,9.418534
2024-04-07T08:24:57.880Z,9.418332
2024-04-07T08:25:57.900Z,9.418278
2024-04-07T08:26:57.900Z,9.418271
2024-04-07T08:27:57.855Z,9.418282
2024-04-07T08:28:57.868Z,9.418396
2024-04-07T08:29:57.843Z,9.418332
2024-04-07T08:30:57.857Z,9.418380
2024-04-07T08:31:57.869Z,9.418375
2024-04-07T08:32:57.852Z,9.418321
2024-04-07T08:33:57.829Z,9.418315
2024-04-07T08:34:57.873Z,9.418252
2024-04-07T08:35:57.831Z,9.418327
2024-04-07T08:36:57.859Z,9.418263
2024-04-07T08:37:57.849Z,9.418203
2024-04-07T08:38:57.792Z,9.418184
2024-04-07T08:39:58.795Z,9.418260
2024-04-07T08:40:57.819Z,9.418335
2024-04-07T08:41:57.870Z,9.418305
2024-04-07T08:42:57.879Z,9.418274
2024-04-07T08:43:59.167Z,9.418236
2024-04-07T08:44:58.766Z,9.418187
2024-04-07T08:45:57.919Z,9.418294
2024-04-07T08:46:57.785Z,9.418192
2024-04-07T08:47:57.859Z,9.418364
2024-04-07T08:48:57.719Z,9.418309
2024-04-07T08:49:57.746Z,9.418365
2024-04-07T08:50:57.714Z,9.418222
2024-04-07T08:51:57.711Z,9.418242
2024-04-07T08:52:58.255Z,9.418391
2024-04-07T08:53:57.696Z,9.418348
2024-04-07T08:54:58.807Z,9.418302
2024-04-07T08:55:57.701Z,9.418308
2024-04-07T08:56:57.682Z,9.418219
2024-04-07T08:57:57.697Z,9.418240
2024-04-07T08:58:57.728Z,9.418293
2024-04-07T08:59:57.660Z,9.418212
2024-04-07T09:00:57.665Z,9.418203
2024-04-07T09:01:57.730Z,9.418264
2024-04-07T09:02:57.663Z,9.418121
2024-04-07T09:03:57.710Z,9.418208
2024-04-07T09:04:57.643Z,9.418204
2024-04-07T09:05:57.639Z,9.418282
2024-04-07T09:06:57.616Z,9.418260
2024-04-07T09:07:57.617Z,9.418268
2024-04-07T09:08:57.619Z,9.418255
2024-04-07T09:09:58.633Z,9.418260
2024-04-07T09:10:57.611Z,9.418236
2024-04-07T09:11:57.583Z,9.418336
2024-04-07T09:12:57.582Z,9.418284
2024-04-07T09:13:57.638Z,9.418340
2024-04-07T09:14:57.582Z,9.418253
2024-04-07T09:15:57.562Z,9.418366
2024-04-07T09:16:57.574Z,9.418283
2024-04-07T09:17:57.606Z,9.418251
2024-04-07T09:19:00.119Z,9.418258
2024-04-07T09:19:57.611Z,9.418329
2024-04-07T09:20:57.524Z,9.418291
2024-04-07T09:21:57.522Z,9.418329
2024-04-07T09:22:57.532Z,9.418259
2024-04-07T09:23:57.508Z,9.418216
2024-04-07T09:24:57.514Z,9.418281
2024-04-07T09:25:57.531Z,9.418303
2024-04-07T09:26:57.491Z,9.418260
2024-04-07T09:27:57.478Z,9.418296
2024-04-07T09:28:57.507Z,9.418345
2024-04-07T09:29:57.472Z,9.418255
2024-04-07T09:30:57.479Z,9.418241
2024-04-07T09:31:57.474Z,9.418212
2024-04-07T09:32:57.460Z,9.418346
2024-04-07T09:33:57.444Z,9.418390
2024-04-07T09:34:57.459Z,9.418220
2024-04-07T09:35:57.450Z,9.418278
2024-04-07T09:36:57.426Z,9.418324
2024-04-07T09:37:57.451Z,9.418349
2024-04-07T09:38:57.415Z,9.418261
2024-04-07T09:39:57.410Z,9.418327
2024-04-07T09:40:57.473Z,9.418406
2024-04-07T09:41:57.417Z,9.418337
2024-04-07T09:42:57.380Z,9.418381
2024-04-07T09:43:57.397Z,9.418447
2024-04-07T09:44:57.366Z,9.418416
2024-04-07T09:45:57.378Z,9.418321
2024-04-07T09:46:57.391Z,9.418265
2024-04-07T09:47:57.346Z,9.418340
2024-04-07T09:48:57.344Z,9.418480
2024-04-07T09:49:57.334Z,9.418431
2024-04-07T09:50:57.338Z,9.418391
2024-04-07T09:51:57.330Z,9.418370
2024-04-07T09:52:57.368Z,9.418280
2024-04-07T09:53:57.314Z,9.418227
2024-04-07T09:54:57.317Z,9.418301
2024-04-07T09:55:57.324Z,9.418344
2024-04-07T09:56:57.309Z,9.418379
2024-04-07T09:57:57.353Z,9.418294
2024-04-07T09:58:57.322Z,9.418415
2024-04-07T09:59:57.266Z,9.418494
2024-04-07T10:00:57.274Z,9.418424
2024-04-07T10:01:57.309Z,9.418275
2024-04-07T10:02:57.257Z,9.418234
2024-04-07T10:03:57.272Z,9.418431
2024-04-07T10:04:57.307Z,9.418459
2024-04-07T10:05:57.270Z,9.418324
2024-04-07T10:06:57.256Z,9.418437
2024-04-07T10:07:57.235Z,9.418713
2024-04-07T10:08:57.426Z,9.418646
2024-04-07T10:09:57.226Z,9.418500
2024-04-07T10:11:04.714Z,9.418273
2024-04-07T10:11:59.201Z,9.418237
2024-04-07T10:12:57.187Z,9.418399
2024-04-07T10:13:57.198Z,9.418484
2024-04-07T10:14:57.192Z,9.418394
2024-04-07T10:15:57.375Z,9.418546
2024-04-07T10:16:57.192Z,9.418420
2024-04-07T10:17:57.162Z,9.418352
2024-04-07T10:18:57.344Z,9.418310
2024-04-07T10:19:57.179Z,9.418435
2024-04-07T10:20:57.167Z,9.418483
2024-04-07T10:21:57.165Z,9.418531
2024-04-07T10:22:57.201Z,9.418488
2024-04-07T10:23:57.138Z,9.418421
2024-04-07T10:24:57.133Z,9.418407
2024-04-07T10:25:57.144Z,9.418369
2024-04-07T10:26:57.152Z,9.418505
2024-04-07T10:27:57.096Z,9.418455
2024-04-07T10:28:57.142Z,9.418538
2024-04-07T10:29:57.086Z,9.418447
2024-04-07T10:30:57.089Z,9.418491
2024-04-07T10:31:57.097Z,9.418370
2024-04-07T10:32:57.329Z,9.418437
2024-04-07T10:33:57.077Z,9.418495
2024-04-07T10:34:57.810Z,9.418319
2024-04-07T10:35:57.043Z,9.418295
2024-04-07T10:36:57.053Z,9.418455
2024-04-07T10:37:57.037Z,9.418304
2024-04-07T10:38:57.043Z,9.418079
2024-04-07T10:39:57.017Z,9.418009
2024-04-07T10:40:57.012Z,9.418320
2024-04-07T10:41:57.020Z,9.418379
2024-04-07T10:42:57.023Z,9.418067
2024-04-07T10:43:56.995Z,9.417908
2024-04-07T10:44:56.995Z,9.417540
2024-04-07T10:45:57.031Z,9.417813
2024-04-07T10:46:57.036Z,9.418078
2024-04-07T10:47:57.077Z,9.418166
2024-04-07T10:48:56.978Z,9.418210
2024-04-07T10:49:56.973Z,9.417985
2024-04-07T10:50:56.946Z,9.418394
2024-04-07T10:51:56.946Z,9.418282
2024-04-07T10:52:56.934Z,9.418279
2024-04-07T10:53:56.930Z,9.418338
2024-04-07T10:54:56.942Z,9.418156
2024-04-07T10:55:56.998Z,9.418469
2024-04-07T10:56:56.909Z,9.418509
2024-04-07T10:57:56.902Z,9.418562
2024-04-07T10:58:56.889Z,9.418471
2024-04-07T10:59:56.900Z,9.418497
2024-04-07T11:00:56.885Z,9.418713
2024-04-07T11:01:56.874Z,9.418468
2024-04-07T11:02:56.882Z,9.418469
2024-04-07T11:03:56.868Z,9.418248
2024-04-07T11:04:56.883Z,9.418267
2024-04-07T11:05:56.877Z,9.418542
2024-04-07T11:06:56.868Z,9.418572
2024-04-07T11:07:56.838Z,9.418683
2024-04-07T11:08:56.849Z,9.418879
2024-04-07T11:09:56.885Z,9.418998
2024-04-07T11:10:56.880Z,9.418957
2024-04-07T11:11:56.865Z,9.418715
2024-04-07T11:12:56.807Z,9.418816
2024-04-07T11:13:56.884Z,9.418890
2024-04-07T11:14:56.846Z,9.418715
2024-04-07T11:15:56.803Z,9.418579
2024-04-07T11:16:57.782Z,9.418608
2024-04-07T11:17:56.807Z,9.418713
2024-04-07T11:18:56.779Z,9.418684
2024-04-07T11:19:56.785Z,9.418682
2024-04-07T11:20:56.794Z,9.418682
2024-04-07T11:21:56.762Z,9.418826
2024-04-07T11:22:56.765Z,9.418471
2024-04-07T11:23:56.782Z,9.418261
2024-04-07T11:24:56.752Z,9.418290
2024-04-07T11:25:56.745Z,9.418226
2024-04-07T11:26:56.739Z,9.418242
2024-04-07T11:27:56.720Z,9.418185
2024-04-07T11:28:56.704Z,9.418159
2024-04-07T11:29:56.698Z,9.418301
2024-04-07T11:30:56.705Z,9.418270
2024-04-07T11:32:07.572Z,9.418236
2024-04-07T11:32:58.741Z,9.418246
2024-04-07T11:33:56.693Z,9.418297
2024-04-07T11:34:56.677Z,9.418290
2024-04-07T11:35:56.693Z,9.418317
2024-04-07T11:36:56.649Z,9.418337
2024-04-07T11:37:56.649Z,9.418309
2024-04-07T11:38:56.645Z,9.418285
2024-04-07T11:39:57.277Z,9.418198
2024-04-07T11:40:57.631Z,9.418365
2024-04-07T11:41:56.623Z,9.418300
2024-04-07T11:42:56.632Z,9.418335
2024-04-07T11:43:56.611Z,9.418178